Time,TemperatureF,DewpointF,PressureIn,WindDirection,WindDirectionDegrees,WindSpeedMPH,WindSpeedGustMPH,Humidity,HourlyPrecipIn,Conditions,Clouds,dailyrainin,SoftwareType,DateUTC
2013-08-08 00:12:00,70.6,70.0,29.94,ESE,117,0.0,1.0,97,0.00,,,0.00,weatherlink.com 1.10,2013-08-08 04:12:00,
2013-08-08 00:27:00,70.5,70.0,29.94,ESE,117,0.0,0.0,97,0.00,,,0.00,weatherlink.com 1.10,2013-08-08 04:27:00,
2013-08-08 00:42:00,70.4,70.0,29.95,ESE,117,0.0,0.0,97,0.00,,,0.00,weatherlink.com 1.10,2013-08-08 04:42:00,
2013-08-08 00:57:00,70.4,70.0,29.94,ESE,117,0.0,0.0,97,0.00,,,0.00,weatherlink.com 1.10,2013-08-08 04:57:00,
2013-08-08 01:12:00,70.6,70.0,29.95,ESE,117,0.0,0.0,97,0.00,,,0.00,weatherlink.com 1.10,2013-08-08 05:12:00,
2013-08-08 01:27:00,70.5,70.0,29.94,ESE,117,0.0,0.0,97,0.00,,,0.00,weatherlink.com 1.10,2013-08-08 05:27:00,
2013-08-08 01:42:00,70.4,70.0,29.93,ESE,117,0.0,0.0,97,0.00,,,0.00,weatherlink.com 1.10,2013-08-08 05:42:00,
2013-08-08 01:57:00,70.3,69.0,29.93,ESE,117,0.0,0.0,97,0.00,,,0.00,weatherlink.com 1.10,2013-08-08 05:57:00,
2013-08-08 02:13:00,70.0,69.0,29.93,ESE,117,0.0,1.0,97,0.00,,,0.00,weatherlink.com 1.10,2013-08-08 06:13:00,
2013-08-08 02:28:00,70.0,69.0,29.93,ESE,117,0.0,1.0,98,0.00,,,0.00,weatherlink.com 1.10,2013-08-08 06:28:00,
2013-08-08 02:43:00,69.8,69.0,29.93,ESE,117,0.0,1.0,97,0.00,,,0.00,weatherlink.com 1.10,2013-08-08 06:43:00,
2013-08-08 02:58:00,69.6,69.0,29.92,ESE,117,0.0,0.0,97,0.00,,,0.00,weatherlink.com 1.10,2013-08-08 06:58:00,
2013-08-08 03:13:00,69.4,69.0,29.93,ESE,117,0.0,0.0,97,0.00,,,0.00,weatherlink.com 1.10,2013-08-08 07:13:00,
2013-08-08 03:28:00,69.0,68.0,29.93,ESE,117,0.0,0.0,97,0.00,,,0.00,weatherlink.com 1.10,2013-08-08 07:28:00,
2013-08-08 03:43:00,68.7,68.0,29.92,ESE,117,0.0,0.0,97,0.00,,,0.00,weatherlink.com 1.10,2013-08-08 07:43:00,
2013-08-08 03:58:00,68.4,68.0,29.92,ESE,117,0.0,0.0,97,0.00,,,0.00,weatherlink.com 1.10,2013-08-08 07:58:00,
2013-08-08 04:13:00,68.3,68.0,29.91,ESE,117,0.0,0.0,97,0.00,,,0.00,weatherlink.com 1.10,2013-08-08 08:13:00,
2013-08-08 04:28:00,68.3,68.0,29.91,ESE,117,0.0,0.0,98,0.00,,,0.00,weatherlink.com 1.10,2013-08-08 08:28:00,
2013-08-08 04:43:00,68.3,68.0,29.91,ESE,117,0.0,0.0,98,0.00,,,0.00,weatherlink.com 1.10,2013-08-08 08:43:00,
2013-08-08 04:58:00,68.1,68.0,29.91,ESE,117,0.0,0.0,98,0.00,,,0.00,weatherlink.com 1.10,2013-08-08 08:58:00,
2013-08-08 05:13:00,67.9,67.0,29.92,ESE,117,0.0,0.0,98,0.00,,,0.00,weatherlink.com 1.10,2013-08-08 09:13:00,
2013-08-08 05:28:00,67.9,67.0,29.92,ESE,117,0.0,1.0,98,0.00,,,0.00,weatherlink.com 1.10,2013-08-08 09:28:00,
2013-08-08 05:43:00,68.1,68.0,29.92,ESE,117,0.0,0.0,98,0.00,,,0.00,weatherlink.com 1.10,2013-08-08 09:43:00,
2013-08-08 05:58:00,68.5,68.0,29.92,ESE,117,0.0,0.0,98,0.00,,,0.00,weatherlink.com 1.10,2013-08-08 09:58:00,
2013-08-08 06:13:00,68.5,68.0,29.93,ESE,117,0.0,0.0,98,0.00,,,0.00,weatherlink.com 1.10,2013-08-08 10:13:00,
2013-08-08 06:28:00,68.6,68.0,29.93,ESE,117,0.0,0.0,98,0.00,,,0.00,weatherlink.com 1.10,2013-08-08 10:28:00,
2013-08-08 06:43:00,68.7,68.0,29.93,ESE,117,0.0,0.0,98,0.00,,,0.00,weatherlink.com 1.10,2013-08-08 10:43:00,
2013-08-08 06:58:00,68.9,68.0,29.93,ESE,117,0.0,0.0,98,0.00,,,0.00,weatherlink.com 1.10,2013-08-08 10:58:00,
2013-08-08 07:13:00,69.2,69.0,29.93,ESE,117,0.0,0.0,99,0.00,,,0.00,weatherlink.com 1.10,2013-08-08 11:13:00,
2013-08-08 07:28:00,69.7,69.0,29.93,ESE,117,0.0,0.0,98,0.00,,,0.00,weatherlink.com 1.10,2013-08-08 11:28:00,
2013-08-08 07:43:00,70.1,70.0,29.94,ESE,117,0.0,1.0,99,0.00,,,0.00,weatherlink.com 1.10,2013-08-08 11:43:00,
2013-08-08 07:58:00,70.5,70.0,29.94,ESE,117,0.0,0.0,99,0.00,,,0.00,weatherlink.com 1.10,2013-08-08 11:58:00,
2013-08-08 08:13:00,70.9,71.0,29.95,ESE,117,0.0,0.0,99,0.00,,,0.00,weatherlink.com 1.10,2013-08-08 12:13:00,
2013-08-08 08:28:00,71.3,71.0,29.94,ESE,117,0.0,1.0,99,0.00,,,0.00,weatherlink.com 1.10,2013-08-08 12:28:00,
2013-08-08 08:43:00,71.7,71.0,29.94,ESE,117,0.0,2.0,98,0.00,,,0.00,weatherlink.com 1.10,2013-08-08 12:43:00,
2013-08-08 08:58:00,72.5,72.0,29.94,ESE,117,0.0,1.0,99,0.00,,,0.00,weatherlink.com 1.10,2013-08-08 12:58:00,
2013-08-08 09:13:00,73.0,72.0,29.94,ESE,113,0.0,2.0,97,0.00,,,0.00,weatherlink.com 1.10,2013-08-08 13:13:00,
2013-08-08 09:28:00,73.8,73.0,29.94,SSE,147,0.0,1.0,97,0.00,,,0.00,weatherlink.com 1.10,2013-08-08 13:28:00,
2013-08-08 09:43:00,74.3,73.0,29.94,SE,138,0.0,1.0,96,0.00,,,0.00,weatherlink.com 1.10,2013-08-08 13:43:00,
2013-08-08 09:58:00,74.6,73.0,29.94,SE,136,0.0,1.0,94,0.00,,,0.00,weatherlink.com 1.10,2013-08-08 13:58:00,
2013-08-08 10:13:00,75.0,73.0,29.94,ESE,116,0.0,1.0,94,0.00,,,0.00,weatherlink.com 1.10,2013-08-08 14:13:00,
2013-08-08 10:28:00,75.6,73.0,29.94,SE,143,0.0,2.0,91,0.00,,,0.00,weatherlink.com 1.10,2013-08-08 14:28:00,
2013-08-08 10:43:00,75.8,73.0,29.94,SE,124,0.0,3.0,90,0.00,,,0.00,weatherlink.com 1.10,2013-08-08 14:43:00,
2013-08-08 10:58:00,75.9,73.0,29.93,ENE,78,0.0,3.0,90,0.00,,,0.00,weatherlink.com 1.10,2013-08-08 14:58:00,
2013-08-08 11:13:00,76.1,73.0,29.93,ENE,59,1.0,4.0,89,0.00,,,0.00,weatherlink.com 1.10,2013-08-08 15:13:00,
2013-08-08 11:28:00,76.4,73.0,29.94,East,93,0.0,2.0,89,0.00,,,0.00,weatherlink.com 1.10,2013-08-08 15:28:00,
2013-08-08 11:43:00,77.8,74.0,29.93,SW,235,0.0,6.0,88,0.00,,,0.00,weatherlink.com 1.10,2013-08-08 15:43:00,
2013-08-08 11:58:00,79.5,75.0,29.93,ESE,108,1.0,3.0,87,0.00,,,0.00,weatherlink.com 1.10,2013-08-08 15:58:00,
2013-08-08 12:14:00,80.6,75.0,29.93,East,84,1.0,3.0,82,0.00,,,0.00,weatherlink.com 1.10,2013-08-08 16:14:00,
2013-08-08 12:44:00,82.8,75.0,29.93,East,84,1.0,3.0,77,0.00,,,0.00,weatherlink.com 1.10,2013-08-08 16:44:00,
2013-08-08 12:59:00,82.4,75.0,29.93,NNE,17,1.0,4.0,77,0.00,,,0.00,weatherlink.com 1.10,2013-08-08 16:59:00,
2013-08-08 13:14:00,82.8,75.0,29.93,East,85,0.0,5.0,76,0.00,,,0.00,weatherlink.com 1.10,2013-08-08 17:14:00,
2013-08-08 13:29:00,83.2,74.0,29.92,SSW,212,2.0,4.0,74,0.00,,,0.00,weatherlink.com 1.10,2013-08-08 17:29:00,
2013-08-08 13:44:00,83.2,75.0,29.92,SSW,209,2.0,4.0,75,0.00,,,0.00,weatherlink.com 1.10,2013-08-08 17:44:00,
2013-08-08 13:59:00,82.5,74.0,29.93,SE,128,0.0,6.0,75,0.00,,,0.00,weatherlink.com 1.10,2013-08-08 17:59:00,
2013-08-08 14:14:00,84.3,74.0,29.92,WSW,242,1.0,4.0,72,0.00,,,0.00,weatherlink.com 1.10,2013-08-08 18:14:00,
2013-08-08 14:29:00,83.1,74.0,29.92,ENE,61,0.0,4.0,74,0.00,,,0.00,weatherlink.com 1.10,2013-08-08 18:29:00,
2013-08-08 14:44:00,82.4,73.0,29.92,ESE,121,1.0,3.0,74,0.00,,,0.00,weatherlink.com 1.10,2013-08-08 18:44:00,
2013-08-08 14:59:00,82.1,74.0,29.91,ESE,113,0.0,3.0,75,0.00,,,0.00,weatherlink.com 1.10,2013-08-08 18:59:00,
2013-08-08 15:14:00,81.4,74.0,29.91,SSE,150,0.0,2.0,77,0.00,,,0.00,weatherlink.com 1.10,2013-08-08 19:14:00,
2013-08-08 15:29:00,80.7,74.0,29.90,ENE,63,0.0,3.0,79,0.00,,,0.00,weatherlink.com 1.10,2013-08-08 19:29:00,
2013-08-08 15:44:00,80.9,74.0,29.90,East,87,0.0,2.0,80,0.00,,,0.00,weatherlink.com 1.10,2013-08-08 19:44:00,
2013-08-08 15:59:00,81.6,75.0,29.90,ENE,78,0.0,2.0,79,0.00,,,0.00,weatherlink.com 1.10,2013-08-08 19:59:00,
2013-08-08 16:14:00,81.9,74.0,29.89,ESE,115,0.0,2.0,78,0.00,,,0.00,weatherlink.com 1.10,2013-08-08 20:14:00,
2013-08-08 16:29:00,80.5,75.0,29.90,NNW,339,1.0,5.0,82,0.05,,,0.05,weatherlink.com 1.10,2013-08-08 20:29:00,
2013-08-08 16:44:00,77.8,74.0,29.89,NW,319,0.0,2.0,88,0.17,,,0.17,weatherlink.com 1.10,2013-08-08 20:44:00,
2013-08-08 16:59:00,76.6,74.0,29.88,NW,319,0.0,0.0,92,0.17,,,0.17,weatherlink.com 1.10,2013-08-08 20:59:00,
2013-08-08 17:14:00,76.4,75.0,29.89,East,86,2.0,2.0,94,0.17,,,0.17,weatherlink.com 1.10,2013-08-08 21:14:00,
2013-08-08 17:29:00,76.2,74.0,29.89,East,86,3.0,3.0,94,0.11,,,0.17,weatherlink.com 1.10,2013-08-08 21:29:00,
2013-08-08 17:44:00,76.1,75.0,29.89,East,87,1.0,2.0,95,0.01,,,0.18,weatherlink.com 1.10,2013-08-08 21:44:00,
2013-08-08 18:14:00,76.5,74.0,29.88,East,98,0.0,2.0,92,0.01,,,0.18,weatherlink.com 1.10,2013-08-08 22:14:00,
2013-08-08 18:59:00,76.0,74.0,29.88,SE,129,0.0,2.0,92,0.00,,,0.18,weatherlink.com 1.10,2013-08-08 22:59:00,
2013-08-08 19:14:00,75.9,74.0,29.88,East,91,0.0,1.0,93,0.00,,,0.18,weatherlink.com 1.10,2013-08-08 23:14:00,
2013-08-08 19:44:00,75.6,74.0,29.89,East,91,0.0,0.0,94,0.01,,,0.19,weatherlink.com 1.10,2013-08-08 23:44:00,
2013-08-08 19:59:00,75.3,74.0,29.89,East,91,0.0,0.0,94,0.03,,,0.21,weatherlink.com 1.10,2013-08-08 23:59:00,
2013-08-08 20:14:00,75.1,74.0,29.89,East,91,0.0,1.0,95,0.05,,,0.23,weatherlink.com 1.10,2013-08-09 00:14:00,
2013-08-08 20:29:00,74.8,73.0,29.90,East,91,0.0,0.0,95,0.07,,,0.25,weatherlink.com 1.10,2013-08-09 00:29:00,
2013-08-08 20:44:00,74.6,73.0,29.90,East,91,0.0,0.0,95,0.08,,,0.27,weatherlink.com 1.10,2013-08-09 00:44:00,
2013-08-08 20:59:00,74.6,73.0,29.90,East,91,0.0,0.0,96,0.08,,,0.29,weatherlink.com 1.10,2013-08-09 00:59:00,
2013-08-08 21:29:00,74.4,74.0,29.90,East,91,0.0,1.0,97,0.04,,,0.29,weatherlink.com 1.10,2013-08-09 01:29:00,
2013-08-08 21:59:00,74.1,73.0,29.90,ENE,77,0.0,1.0,96,0.00,,,0.29,weatherlink.com 1.10,2013-08-09 01:59:00,
2013-08-08 22:14:00,74.0,73.0,29.90,ENE,78,0.0,1.0,96,0.00,,,0.29,weatherlink.com 1.10,2013-08-09 02:14:00,
2013-08-08 22:29:00,73.9,73.0,29.90,ENE,77,0.0,0.0,97,0.00,,,0.29,weatherlink.com 1.10,2013-08-09 02:29:00,
2013-08-08 22:44:00,73.8,73.0,29.90,ENE,77,0.0,0.0,97,0.01,,,0.30,weatherlink.com 1.10,2013-08-09 02:44:00,
2013-08-08 22:59:00,73.7,73.0,29.89,ENE,77,0.0,0.0,97,0.01,,,0.30,weatherlink.com 1.10,2013-08-09 02:59:00,
2013-08-08 23:14:00,73.7,73.0,29.89,ENE,77,0.0,0.0,97,0.01,,,0.30,weatherlink.com 1.10,2013-08-09 03:14:00,
2013-08-08 23:29:00,73.6,73.0,29.88,ENE,77,0.0,1.0,97,0.01,,,0.30,weatherlink.com 1.10,2013-08-09 03:29:00,
2013-08-08 23:44:00,73.5,73.0,29.88,ENE,77,0.0,1.0,97,0.00,,,0.30,weatherlink.com 1.10,2013-08-09 03:44:00,
2013-08-08 23:59:00,73.4,73.0,29.88,ENE,77,0.0,0.0,97,0.00,,,0.30,weatherlink.com 1.10,2013-08-09 03:59:00,